createdAt,value
2019-04-12T00:02:25.184Z,6.80
2019-04-12T00:04:54.484Z,6.80
2019-04-12T00:07:23.641Z,6.90
2019-04-12T00:09:52.912Z,6.80
2019-04-12T00:12:22.124Z,6.60
2019-04-12T00:14:51.336Z,6.60
2019-04-12T00:17:20.613Z,6.50
2019-04-12T00:19:49.883Z,6.50
2019-04-12T00:22:19.212Z,6.60
2019-04-12T00:24:48.488Z,6.40
2019-04-12T00:27:19.009Z,6.40
2019-04-12T00:29:50.695Z,6.50
2019-04-12T00:32:21.491Z,6.50
2019-04-12T00:34:53.055Z,6.50
2019-04-12T00:37:24.113Z,6.50
2019-04-12T00:39:52.539Z,6.40
2019-04-12T00:42:21.731Z,6.40
2019-04-12T00:44:51.036Z,6.20
2019-04-12T00:47:21.691Z,6.20
2019-04-12T00:49:50.850Z,6.20
2019-04-12T00:52:20.066Z,6.10
2019-04-12T00:54:50.371Z,6.00
2019-04-12T00:57:20.135Z,6.00
2019-04-12T00:59:49.442Z,6.00
2019-04-12T01:02:33.049Z,5.90
2019-04-12T01:05:04.973Z,5.80
2019-04-12T01:07:34.224Z,5.70
2019-04-12T01:10:03.766Z,5.70
2019-04-12T01:12:32.944Z,5.80
2019-04-12T01:15:02.176Z,5.70
2019-04-12T01:17:31.795Z,5.70
2019-04-12T01:20:04.660Z,5.60
2019-04-12T01:22:36.095Z,5.60
2019-04-12T01:25:05.010Z,5.50
2019-04-12T01:27:34.362Z,5.60
2019-04-12T01:30:04.014Z,5.60
2019-04-12T01:32:33.318Z,5.60
2019-04-12T01:35:02.634Z,5.60
2019-04-12T01:37:31.911Z,5.60
2019-04-12T01:40:01.178Z,5.70
2019-04-12T01:42:30.313Z,5.60
2019-04-12T01:44:59.490Z,5.60
2019-04-12T01:47:28.768Z,5.60
2019-04-12T01:49:57.982Z,5.60
2019-04-12T01:52:27.150Z,5.70
2019-04-12T01:54:56.320Z,5.60
2019-04-12T01:57:25.468Z,5.60
2019-04-12T01:59:54.691Z,5.60
2019-04-12T02:02:23.846Z,5.60
2019-04-12T02:04:53.087Z,5.60
2019-04-12T02:07:22.247Z,5.50
2019-04-12T02:09:51.488Z,5.50
2019-04-12T02:12:20.718Z,5.40
2019-04-12T02:14:49.962Z,5.40
2019-04-12T02:17:19.136Z,5.40
2019-04-12T02:19:48.393Z,5.40
2019-04-12T02:22:17.587Z,5.40
2019-04-12T02:24:46.884Z,5.40
2019-04-12T02:27:16.056Z,5.40
2019-04-12T02:29:45.219Z,5.30
2019-04-12T02:32:32.823Z,5.30
2019-04-12T02:35:03.585Z,5.30
2019-04-12T02:37:32.772Z,5.30
2019-04-12T02:40:01.997Z,5.30
2019-04-12T02:42:32.396Z,5.20
2019-04-12T02:45:03.370Z,5.10
2019-04-12T02:47:42.559Z,5.10
2019-04-12T02:50:29.877Z,5.20
2019-04-12T02:53:32.634Z,5.10
2019-04-12T02:56:20.685Z,5.00
2019-04-12T02:58:54.853Z,5.00
2019-04-12T03:01:25.596Z,5.10
2019-04-12T03:03:55.716Z,4.90
2019-04-12T03:06:24.869Z,5.00
2019-04-12T03:08:54.049Z,4.90
2019-04-12T03:11:25.219Z,5.00
2019-04-12T03:13:56.421Z,5.00
2019-04-12T03:16:26.736Z,5.00
2019-04-12T03:18:56.487Z,5.00
2019-04-12T03:21:25.989Z,5.10
2019-04-12T03:23:55.226Z,5.00
2019-04-12T03:26:25.040Z,5.00
2019-04-12T03:29:00.949Z,4.80
2019-04-12T03:31:31.963Z,4.90
2019-04-12T03:34:01.609Z,5.00
2019-04-12T03:36:31.707Z,5.00
2019-04-12T03:39:01.863Z,5.00
2019-04-12T03:41:32.832Z,4.90
2019-04-12T03:44:02.231Z,4.90
2019-04-12T03:46:31.511Z,4.90
2019-04-12T03:49:00.792Z,4.90
2019-04-12T03:51:30.640Z,4.90
2019-04-12T03:54:00.107Z,4.90
2019-04-12T03:56:29.357Z,4.80
2019-04-12T03:59:16.561Z,4.90
2019-04-12T04:01:46.708Z,4.90
2019-04-12T04:04:16.009Z,4.80
2019-04-12T04:06:45.988Z,4.90
2019-04-12T04:09:15.464Z,4.90
2019-04-12T04:11:45.605Z,4.90
2019-04-12T04:14:15.400Z,4.90
2019-04-12T04:16:51.172Z,4.90
2019-04-12T04:19:20.847Z,4.90
2019-04-12T04:21:52.659Z,4.90
2019-04-12T04:24:34.328Z,4.90
2019-04-12T04:27:25.821Z,4.90
2019-04-12T04:30:13.381Z,4.90
2019-04-12T04:33:02.536Z,4.90
2019-04-12T04:35:31.828Z,4.90
2019-04-12T04:38:19.617Z,4.90
2019-04-12T04:40:55.328Z,4.80
2019-04-12T04:43:24.484Z,4.80
2019-04-12T04:45:53.964Z,4.80
2019-04-12T04:48:23.428Z,4.90
2019-04-12T04:50:52.782Z,4.80
2019-04-12T04:53:22.310Z,4.70
2019-04-12T04:55:51.987Z,4.80
2019-04-12T04:58:21.309Z,4.70
2019-04-12T05:00:50.719Z,4.70
2019-04-12T05:03:20.385Z,4.60
2019-04-12T05:05:49.720Z,4.50
2019-04-12T05:08:18.921Z,4.40
2019-04-12T05:10:48.375Z,4.40
2019-04-12T05:13:17.984Z,4.50
2019-04-12T05:15:47.353Z,4.40
2019-04-12T05:18:16.909Z,4.60
2019-04-12T05:20:46.200Z,4.70
2019-04-12T05:23:15.489Z,4.70
2019-04-12T05:25:45.610Z,4.50
2019-04-12T05:28:14.952Z,4.60
2019-04-12T05:30:44.147Z,4.60
2019-04-12T05:33:13.715Z,4.40
2019-04-12T05:35:43.002Z,4.60
2019-04-12T05:38:12.497Z,4.70
2019-04-12T05:40:41.825Z,4.70
2019-04-12T05:43:11.012Z,4.70
2019-04-12T05:46:11.365Z,4.60
2019-04-12T05:48:58.966Z,4.70
2019-04-12T05:51:28.153Z,4.80
2019-04-12T05:53:59.405Z,4.80
2019-04-12T05:56:28.348Z,5.00
2019-04-12T05:59:23.403Z,5.00
2019-04-12T06:02:02.222Z,4.90
2019-04-12T06:04:31.402Z,4.90
2019-04-12T06:07:00.553Z,5.00
2019-04-12T06:09:29.788Z,4.80
2019-04-12T06:11:59.349Z,4.90
2019-04-12T06:14:28.559Z,5.00
2019-04-12T06:17:01.409Z,4.90
2019-04-12T06:19:29.700Z,4.60
2019-04-12T06:22:06.633Z,4.80
2019-04-12T06:24:36.120Z,5.00
2019-04-12T06:27:16.324Z,5.00
2019-04-12T06:29:45.522Z,4.90
2019-04-12T06:32:14.749Z,5.00
2019-04-12T06:34:43.933Z,5.00
2019-04-12T06:37:13.187Z,5.10
2019-04-12T06:39:42.408Z,5.00
2019-04-12T06:42:11.609Z,5.10
2019-04-12T06:44:40.800Z,5.10
2019-04-12T06:47:09.972Z,5.10
2019-04-12T06:49:39.164Z,5.20
2019-04-12T06:52:08.409Z,5.20
2019-04-12T06:54:37.652Z,5.20
2019-04-12T06:57:22.646Z,5.30
2019-04-12T07:00:04.258Z,5.40
2019-04-12T07:02:38.196Z,5.40
2019-04-12T07:05:07.369Z,5.30
2019-04-12T07:07:36.730Z,5.50
2019-04-12T07:10:06.242Z,5.50
2019-04-12T07:12:35.556Z,5.70
2019-04-12T07:15:06.116Z,5.80
2019-04-12T07:17:35.291Z,5.90
2019-04-12T07:20:04.730Z,5.70
2019-04-12T07:22:33.982Z,6.00
2019-04-12T07:25:03.259Z,5.90
2019-04-12T07:27:34.740Z,6.10
2019-04-12T07:30:03.647Z,6.10
2019-04-12T07:32:32.837Z,6.20
2019-04-12T07:35:02.132Z,6.30
2019-04-12T07:37:31.357Z,6.30
2019-04-12T07:40:00.631Z,6.30
2019-04-12T07:42:29.919Z,6.40
2019-04-12T07:44:59.244Z,6.70
2019-04-12T07:47:28.489Z,6.80
2019-04-12T07:49:59.334Z,7.00
2019-04-12T07:52:28.572Z,7.10
2019-04-12T07:55:16.557Z,7.00
2019-04-12T07:57:52.182Z,7.30
2019-04-12T08:00:40.610Z,7.40
2019-04-12T08:03:28.940Z,7.50
2019-04-12T08:06:07.557Z,7.70
2019-04-12T08:08:36.721Z,7.70
2019-04-12T08:11:06.219Z,7.80
2019-04-12T08:13:35.585Z,7.70
2019-04-12T08:16:04.989Z,7.90
2019-04-12T08:18:53.302Z,8.00
2019-04-12T08:21:22.561Z,8.30
2019-04-12T08:23:51.737Z,8.40
2019-04-12T08:26:21.001Z,7.90
2019-04-12T08:28:50.389Z,8.00
2019-04-12T08:31:21.163Z,8.20
2019-04-12T08:33:50.392Z,8.40
2019-04-12T08:36:19.555Z,8.10
2019-04-12T08:38:48.874Z,8.40
2019-04-12T08:41:18.141Z,8.20
2019-04-12T08:43:47.388Z,8.40
2019-04-12T08:46:18.996Z,8.00
2019-04-12T08:48:47.611Z,8.00
2019-04-12T08:51:22.659Z,8.30
2019-04-12T08:53:48.059Z,8.30
2019-04-12T08:56:17.247Z,8.50
2019-04-12T08:58:46.659Z,8.60
2019-04-12T09:01:16.147Z,8.50
2019-04-12T09:03:45.483Z,8.50
2019-04-12T09:06:14.941Z,8.90
2019-04-12T09:08:49.824Z,9.10
2019-04-12T09:11:19.297Z,9.20
2019-04-12T09:13:48.859Z,9.30
2019-04-12T09:16:18.241Z,9.50
2019-04-12T09:18:54.231Z,9.80
2019-04-12T09:21:35.987Z,9.80
2019-04-12T09:24:11.673Z,9.90
2019-04-12T09:26:41.036Z,9.60
2019-04-12T09:29:10.286Z,9.10
2019-04-12T09:31:39.526Z,9.20
2019-04-12T09:34:16.720Z,9.30
2019-04-12T09:36:39.723Z,9.50
2019-04-12T09:39:09.099Z,9.80
2019-04-12T09:41:38.279Z,10.00
2019-04-12T09:44:07.445Z,10.00
2019-04-12T09:46:37.188Z,9.90
2019-04-12T09:49:08.356Z,9.70
2019-04-12T09:51:37.665Z,9.90
2019-04-12T09:54:06.924Z,10.00
2019-04-12T09:56:36.124Z,10.30
2019-04-12T09:59:05.454Z,10.50
2019-04-12T10:01:34.778Z,10.40
2019-04-12T10:04:03.989Z,10.70
2019-04-12T10:06:33.307Z,11.30
2019-04-12T10:09:03.182Z,11.10
2019-04-12T10:11:33.192Z,11.60
2019-04-12T10:14:02.366Z,11.60
2019-04-12T10:16:31.674Z,11.20
2019-04-12T10:19:00.909Z,10.50
2019-04-12T10:21:30.242Z,10.70
2019-04-12T10:23:59.578Z,10.90
2019-04-12T10:26:28.925Z,11.10
2019-04-12T10:28:58.213Z,11.60
2019-04-12T10:31:30.203Z,12.10
2019-04-12T10:34:00.159Z,12.30
2019-04-12T10:36:29.522Z,12.00
2019-04-12T10:39:17.839Z,12.30
2019-04-12T10:41:47.042Z,12.20
2019-04-12T10:44:24.517Z,12.40
2019-04-12T10:46:57.197Z,12.90
2019-04-12T10:49:34.145Z,13.40
2019-04-12T10:52:09.201Z,13.10
2019-04-12T10:55:09.762Z,12.30
2019-04-12T10:57:39.139Z,12.60
2019-04-12T11:00:10.662Z,12.70
2019-04-12T11:02:41.285Z,12.80
2019-04-12T11:05:11.927Z,12.80
2019-04-12T11:07:41.276Z,12.70
2019-04-12T11:10:10.471Z,12.50
2019-04-12T11:12:39.775Z,12.70
2019-04-12T11:15:20.548Z,12.90
2019-04-12T11:17:40.758Z,12.60
2019-04-12T11:20:10.383Z,12.90
2019-04-12T11:22:40.001Z,13.40
2019-04-12T11:25:09.315Z,13.50
2019-04-12T11:27:38.708Z,13.50
2019-04-12T11:30:08.516Z,13.40
2019-04-12T11:32:37.827Z,13.20
2019-04-12T11:35:10.178Z,13.00
2019-04-12T11:37:38.498Z,13.00
2019-04-12T11:40:08.088Z,12.70
2019-04-12T11:42:37.264Z,12.80
2019-04-12T11:45:07.678Z,12.90
2019-04-12T11:47:36.937Z,13.00
2019-04-12T11:50:06.902Z,12.90
2019-04-12T11:52:37.180Z,12.80
2019-04-12T11:55:07.360Z,12.60
2019-04-12T11:57:38.174Z,12.50
2019-04-12T12:00:10.800Z,12.00
2019-04-12T12:02:47.216Z,12.00
2019-04-12T12:05:38.165Z,12.00
2019-04-12T12:08:21.428Z,11.90
2019-04-12T12:10:58.268Z,11.60
2019-04-12T12:14:01.514Z,11.60
2019-04-12T12:16:43.110Z,11.70
2019-04-12T12:19:12.998Z,11.60
2019-04-12T12:21:42.303Z,11.50
2019-04-12T12:24:11.492Z,11.30
2019-04-12T12:26:40.705Z,11.50
2019-04-12T12:29:10.014Z,11.20
2019-04-12T12:31:39.294Z,11.30
2019-04-12T12:34:08.522Z,11.40
2019-04-12T12:36:37.814Z,11.50
2019-04-12T12:39:09.386Z,11.50
2019-04-12T12:41:38.586Z,11.70
2019-04-12T12:44:09.284Z,11.70
2019-04-12T12:46:38.577Z,11.60
2019-04-12T12:49:07.773Z,11.70
2019-04-12T12:51:36.950Z,11.60
2019-04-12T12:54:06.213Z,11.60
2019-04-12T12:56:35.420Z,11.30
2019-04-12T12:59:04.761Z,11.10
2019-04-12T13:01:34.040Z,11.20
2019-04-12T13:04:03.594Z,11.50
2019-04-12T13:06:32.920Z,11.60
2019-04-12T13:09:02.231Z,11.70
2019-04-12T13:11:31.441Z,11.70
2019-04-12T13:14:00.709Z,11.40
2019-04-12T13:16:30.018Z,11.30
2019-04-12T13:18:59.311Z,11.20
2019-04-12T13:21:28.626Z,11.40
2019-04-12T13:23:57.869Z,11.20
2019-04-12T13:26:27.205Z,11.40
2019-04-12T13:28:56.492Z,11.60
2019-04-12T13:31:43.353Z,11.60
2019-04-12T13:34:20.286Z,11.60
2019-04-12T13:36:59.194Z,11.80
2019-04-12T13:39:46.384Z,11.60
2019-04-12T13:42:33.009Z,11.60
2019-04-12T13:45:02.459Z,11.60
2019-04-12T13:47:31.734Z,11.80
2019-04-12T13:50:00.917Z,11.80
2019-04-12T13:52:30.214Z,11.80
2019-04-12T13:54:59.469Z,11.80
2019-04-12T13:57:28.878Z,11.40
2019-04-12T13:59:58.102Z,11.40
2019-04-12T14:02:27.416Z,11.30
2019-04-12T14:04:56.673Z,11.10
2019-04-12T14:07:25.949Z,11.00
2019-04-12T14:09:55.273Z,11.10
2019-04-12T14:12:24.525Z,11.20
2019-04-12T14:14:53.769Z,11.10
2019-04-12T14:17:22.963Z,11.30
2019-04-12T14:19:52.114Z,11.30
2019-04-12T14:22:21.281Z,11.30
2019-04-12T14:24:50.485Z,11.30
2019-04-12T14:27:19.730Z,11.20
2019-04-12T14:29:48.934Z,11.10
2019-04-12T14:32:25.007Z,11.10
2019-04-12T14:35:20.024Z,11.00
2019-04-12T14:37:51.791Z,10.80
2019-04-12T14:40:22.435Z,10.70
2019-04-12T14:43:28.879Z,10.80
2019-04-12T14:46:20.649Z,10.80
2019-04-12T14:48:49.934Z,10.60
2019-04-12T14:51:19.201Z,10.70
2019-04-12T14:53:48.506Z,10.70
2019-04-12T14:56:17.853Z,10.70
2019-04-12T14:58:48.884Z,10.50
2019-04-12T15:01:18.275Z,10.60
2019-04-12T15:03:47.524Z,10.60
2019-04-12T15:06:16.711Z,10.50
2019-04-12T15:08:45.911Z,10.50
2019-04-12T15:11:15.303Z,10.60
2019-04-12T15:13:45.579Z,10.60
2019-04-12T15:16:16.348Z,10.50
2019-04-12T15:18:45.603Z,10.60
2019-04-12T15:21:14.878Z,10.50
2019-04-12T15:23:44.075Z,10.30
2019-04-12T15:26:13.398Z,10.40
2019-04-12T15:28:42.658Z,10.40
2019-04-12T15:31:12.977Z,10.40
2019-04-12T15:33:42.152Z,10.30
2019-04-12T15:36:14.425Z,10.40
2019-04-12T15:38:43.816Z,10.40
2019-04-12T15:41:14.614Z,10.30
2019-04-12T15:43:45.038Z,10.40
2019-04-12T15:46:15.762Z,10.40
2019-04-12T15:48:45.116Z,10.30
2019-04-12T15:51:17.564Z,10.30
2019-04-12T15:53:48.324Z,10.30
2019-04-12T15:56:17.502Z,10.30
2019-04-12T15:58:46.757Z,10.30
2019-04-12T16:01:19.391Z,10.10
2019-04-12T16:03:48.777Z,10.10
2019-04-12T16:06:18.282Z,10.20
2019-04-12T16:09:01.562Z,10.10
2019-04-12T16:11:38.783Z,10.10
2019-04-12T16:14:19.312Z,10.10
2019-04-12T16:17:51.642Z,10.10
2019-04-12T16:20:20.893Z,10.20
2019-04-12T16:22:50.211Z,10.10
2019-04-12T16:25:19.497Z,10.00
2019-04-12T16:27:53.622Z,9.90
2019-04-12T16:30:47.196Z,9.90
2019-04-12T16:33:28.464Z,9.90
2019-04-12T16:36:03.670Z,10.00
2019-04-12T16:38:33.987Z,10.00
2019-04-12T16:41:04.045Z,9.90
2019-04-12T16:43:33.283Z,9.90
2019-04-12T16:46:02.590Z,10.00
2019-04-12T16:48:32.752Z,10.00
2019-04-12T16:51:03.199Z,9.90
2019-04-12T16:53:32.525Z,9.90
2019-04-12T16:56:01.805Z,10.00
2019-04-12T16:58:31.059Z,9.90
2019-04-12T17:01:01.040Z,9.90
2019-04-12T17:03:30.398Z,9.70
2019-04-12T17:06:01.384Z,9.80
2019-04-12T17:08:30.627Z,9.80
2019-04-12T17:10:59.954Z,9.80
2019-04-12T17:13:29.133Z,9.70
2019-04-12T17:15:58.438Z,9.80
2019-04-12T17:18:27.636Z,9.70
2019-04-12T17:20:56.896Z,9.70
2019-04-12T17:23:26.083Z,9.60
2019-04-12T17:25:55.380Z,9.60
2019-04-12T17:28:24.555Z,9.70
2019-04-12T17:30:54.017Z,9.60
2019-04-12T17:33:23.279Z,9.60
2019-04-12T17:35:53.051Z,9.50
2019-04-12T17:38:22.277Z,9.50
2019-04-12T17:40:51.593Z,9.60
2019-04-12T17:43:20.853Z,9.50
2019-04-12T17:45:50.085Z,9.50
2019-04-12T17:48:31.937Z,9.40
2019-04-12T17:51:01.326Z,9.40
2019-04-12T17:53:47.771Z,9.40
2019-04-12T17:56:26.864Z,9.30
2019-04-12T17:58:49.836Z,9.30
2019-04-12T18:01:30.918Z,9.30
2019-04-12T18:04:04.780Z,9.30
2019-04-12T18:06:35.582Z,9.20
2019-04-12T18:09:06.924Z,9.30
2019-04-12T18:11:40.962Z,9.20
2019-04-12T18:14:10.237Z,9.20
2019-04-12T18:16:39.584Z,9.20
2019-04-12T18:19:08.967Z,9.20
2019-04-12T18:21:38.203Z,9.10
2019-04-12T18:24:08.411Z,9.00
2019-04-12T18:26:37.708Z,9.10
2019-04-12T18:29:06.919Z,9.00
2019-04-12T18:31:37.573Z,9.00
2019-04-12T18:34:06.857Z,8.90
2019-04-12T18:36:36.138Z,9.00
2019-04-12T18:39:08.991Z,8.90
2019-04-12T18:41:40.039Z,8.80
2019-04-12T18:44:09.205Z,8.80
2019-04-12T18:46:38.398Z,8.80
2019-04-12T18:49:07.646Z,8.70
2019-04-12T18:51:36.869Z,8.70
2019-04-12T18:54:06.113Z,8.80
2019-04-12T18:56:37.076Z,8.70
2019-04-12T18:59:06.355Z,8.70
2019-04-12T19:01:35.556Z,8.80
2019-04-12T19:04:05.118Z,8.70
2019-04-12T19:06:34.312Z,8.70
2019-04-12T19:09:05.520Z,8.80
2019-04-12T19:11:34.693Z,8.70
2019-04-12T19:14:03.990Z,8.70
2019-04-12T19:16:34.757Z,8.60
2019-04-12T19:19:04.197Z,8.60
2019-04-12T19:21:35.294Z,8.60
2019-04-12T19:24:04.832Z,8.60
2019-04-12T19:26:34.110Z,8.60
2019-04-12T19:29:03.396Z,8.50
2019-04-12T19:32:00.651Z,8.50
2019-04-12T19:34:49.032Z,8.50
2019-04-12T19:37:40.110Z,8.50
2019-04-12T19:40:11.128Z,8.50
2019-04-12T19:42:40.368Z,8.40
2019-04-12T19:45:09.800Z,8.40
2019-04-12T19:47:39.056Z,8.50
2019-04-12T19:50:08.532Z,8.50
2019-04-12T19:52:37.718Z,8.50
2019-04-12T19:55:07.119Z,8.50
2019-04-12T19:57:36.420Z,8.60
2019-04-12T20:00:07.326Z,8.50
2019-04-12T20:02:36.672Z,8.50
2019-04-12T20:05:06.358Z,8.40
2019-04-12T20:07:35.799Z,8.40
2019-04-12T20:10:05.862Z,8.40
2019-04-12T20:12:35.082Z,8.50
2019-04-12T20:15:04.906Z,8.50
2019-04-12T20:17:34.387Z,8.50
2019-04-12T20:20:03.780Z,8.50
2019-04-12T20:22:33.106Z,8.40
2019-04-12T20:25:02.326Z,8.30
2019-04-12T20:27:31.600Z,8.30
2019-04-12T20:30:00.921Z,8.20
2019-04-12T20:32:30.240Z,8.20
2019-04-12T20:34:59.538Z,8.20
2019-04-12T20:37:28.823Z,8.20
2019-04-12T20:39:58.192Z,8.10
2019-04-12T20:42:27.420Z,8.00
2019-04-12T20:44:58.202Z,8.00
2019-04-12T20:47:27.395Z,8.00
2019-04-12T20:49:57.638Z,7.90
2019-04-12T20:52:26.928Z,8.00
2019-04-12T20:54:56.224Z,7.90
2019-04-12T20:57:25.478Z,7.90
2019-04-12T20:59:54.767Z,7.90
2019-04-12T21:02:30.545Z,8.00
2019-04-12T21:04:55.065Z,7.90
2019-04-12T21:07:24.374Z,7.90
2019-04-12T21:09:53.774Z,7.90
2019-04-12T21:12:23.065Z,7.90
2019-04-12T21:14:52.261Z,7.90
2019-04-12T21:17:21.558Z,7.90
2019-04-12T21:19:50.977Z,7.90
2019-04-12T21:22:20.278Z,7.90
2019-04-12T21:24:49.615Z,7.80
2019-04-12T21:27:18.947Z,7.90
2019-04-12T21:29:48.247Z,7.90
2019-04-12T21:32:17.427Z,8.00
2019-04-12T21:34:46.811Z,7.90
2019-04-12T21:37:16.016Z,7.80
2019-04-12T21:39:45.455Z,7.60
2019-04-12T21:42:14.845Z,7.60
2019-04-12T21:44:44.135Z,7.60
2019-04-12T21:47:13.426Z,7.60
2019-04-12T21:49:42.720Z,7.60
2019-04-12T21:52:12.019Z,7.50
2019-04-12T21:54:41.289Z,7.50
2019-04-12T21:57:10.609Z,7.50
2019-04-12T21:59:39.793Z,7.50
2019-04-12T22:02:09.851Z,7.50
2019-04-12T22:04:39.603Z,7.50
2019-04-12T22:07:08.854Z,7.60
2019-04-12T22:09:40.649Z,7.50
2019-04-12T22:14:48.025Z,7.40
2019-04-12T22:17:17.340Z,7.40
2019-04-12T22:19:46.663Z,7.50
2019-04-12T22:22:15.869Z,7.50
2019-04-12T22:24:45.193Z,7.40
2019-04-12T22:27:14.475Z,7.30
2019-04-12T22:29:43.818Z,7.30
2019-04-12T22:32:15.777Z,7.30
2019-04-12T22:34:46.180Z,7.40
2019-04-12T22:37:15.431Z,7.30
2019-04-12T22:39:44.680Z,7.30
2019-04-12T22:42:13.985Z,7.20
2019-04-12T22:44:43.313Z,7.20
2019-04-12T22:47:12.533Z,7.20
2019-04-12T22:49:41.752Z,7.10
2019-04-12T22:52:11.017Z,7.20
2019-04-12T22:54:40.264Z,7.20
2019-04-12T22:57:12.179Z,7.10
2019-04-12T22:59:41.475Z,7.00
2019-04-12T23:02:10.700Z,7.10
2019-04-12T23:04:39.988Z,7.00
2019-04-12T23:07:09.310Z,7.00
2019-04-12T23:09:38.612Z,7.00
2019-04-12T23:12:07.784Z,7.10
2019-04-12T23:14:36.961Z,7.10
2019-04-12T23:17:06.250Z,7.20
2019-04-12T23:19:35.516Z,7.20
2019-04-12T23:22:05.000Z,7.30
2019-04-12T23:24:34.240Z,7.30
2019-04-12T23:27:03.508Z,7.30
2019-04-12T23:29:32.855Z,7.30
2019-04-12T23:32:02.564Z,7.20
2019-04-12T23:34:45.605Z,7.20
2019-04-12T23:37:14.923Z,7.20
2019-04-12T23:39:44.090Z,7.10
2019-04-12T23:42:13.443Z,7.10
2019-04-12T23:44:42.667Z,7.10
2019-04-12T23:47:11.934Z,7.10
2019-04-12T23:49:41.215Z,7.00
2019-04-12T23:52:12.435Z,7.10
2019-04-12T23:54:41.275Z,7.00
2019-04-12T23:57:10.537Z,6.90
2019-04-12T23:59:39.707Z,6.90
